createdAt,value
2023-03-21T00:15:53.678Z,19.0
2023-03-21T00:35:53.638Z,18.9
2023-03-21T00:55:53.427Z,18.9
2023-03-21T01:15:53.436Z,18.8
2023-03-21T01:35:53.391Z,18.8
2023-03-21T01:55:53.360Z,18.8
2023-03-21T02:15:53.327Z,18.8
2023-03-21T02:35:53.339Z,18.7
2023-03-21T02:55:53.278Z,18.7
2023-03-21T03:15:53.313Z,18.7
2023-03-21T03:35:53.243Z,18.7
2023-03-21T03:55:53.214Z,18.6
2023-03-21T04:15:53.219Z,18.7
2023-03-21T04:35:53.186Z,18.9
2023-03-21T04:55:53.135Z,19.1
2023-03-21T05:15:53.116Z,19.3
2023-03-21T05:35:53.112Z,19.4
2023-03-21T05:55:53.092Z,19.5
2023-03-21T06:15:53.070Z,19.5
2023-03-21T06:35:53.048Z,19.7
2023-03-21T06:55:53.033Z,19.9
2023-03-21T07:15:53.007Z,20.0
2023-03-21T07:35:52.981Z,20.2
2023-03-21T07:55:52.915Z,20.3
2023-03-21T08:15:52.899Z,20.4
2023-03-21T08:35:52.858Z,20.4
2023-03-21T08:55:52.860Z,20.5
2023-03-21T09:15:52.834Z,20.5
2023-03-21T09:35:52.799Z,20.4
2023-03-21T09:55:52.769Z,20.5
2023-03-21T10:15:52.729Z,20.5
2023-03-21T10:35:52.905Z,20.6
2023-03-21T10:55:52.793Z,20.6
2023-03-21T11:15:52.693Z,20.6
2023-03-21T11:35:52.804Z,20.6
2023-03-21T11:55:52.600Z,20.6
2023-03-21T12:15:52.593Z,20.6
2023-03-21T12:35:52.764Z,20.6
2023-03-21T12:55:52.668Z,20.6
2023-03-21T13:15:52.487Z,20.6
2023-03-21T13:35:52.630Z,20.2
2023-03-21T13:55:52.497Z,20.6
2023-03-21T14:15:52.464Z,20.9
2023-03-21T14:35:52.431Z,21.0
2023-03-21T14:55:52.472Z,21.0
2023-03-21T15:15:52.393Z,21.0
2023-03-21T15:35:52.346Z,21.0
2023-03-21T15:55:52.520Z,21.1
2023-03-21T16:15:52.515Z,21.1
2023-03-21T16:35:52.376Z,21.1
2023-03-21T16:55:52.334Z,21.0
2023-03-21T17:15:52.239Z,20.9
2023-03-21T17:35:52.279Z,20.8
2023-03-21T17:55:52.329Z,20.7
2023-03-21T18:15:52.322Z,20.6
2023-03-21T18:35:52.200Z,20.6
2023-03-21T18:55:52.236Z,20.6
2023-03-21T19:15:52.179Z,20.6
2023-03-21T19:35:52.174Z,20.5
2023-03-21T19:55:52.033Z,20.4
2023-03-21T20:15:52.010Z,20.3
2023-03-21T20:35:52.067Z,20.2
2023-03-21T20:55:51.955Z,20.1
2023-03-21T21:15:51.929Z,20.0
2023-03-21T21:35:52.007Z,20.0
2023-03-21T21:55:51.847Z,19.9
2023-03-21T22:15:51.976Z,19.8
2023-03-21T22:35:51.922Z,19.7
2023-03-21T22:55:51.790Z,19.6
2023-03-21T23:15:51.732Z,19.6
2023-03-21T23:35:51.745Z,19.5
2023-03-21T23:55:51.828Z,19.4
